Time;durP1;ratioP1;P1;durP2;ratioP2;P2;SDS_P1;SDS_P2;PMS_P1;PMS_P2;Temp;Humidity;BMP_temperature;BMP_pressure;BME280_temperature;BME280_humidity;BME280_pressure;Samples;Min_cycle;Max_cycle;Signal;HPM_P1;HPM_P2
2023/01/23 00:00:02;;;;;;;12.53;10.67;;;2.90;1.00;;;;;;5120216;28;20448;-38
2023/01/23 00:02:28;;;;;;;11.87;10.70;;;2.90;1.00;;;;;;5118845;28;20621;-38
2023/01/23 00:04:53;;;;;;;11.70;10.13;;;2.90;1.00;;;;;;5118702;28;20524;-38
2023/01/23 00:07:19;;;;;;;11.70;10.50;;;2.90;1.00;;;;;;5119659;28;20183;-37
2023/01/23 00:09:44;;;;;;;13.80;10.40;;;2.90;1.00;;;;;;5119393;28;20301;-37
2023/01/23 00:12:10;;;;;;;12.77;10.93;;;2.80;1.00;;;;;;5120175;28;20179;-37
2023/01/23 00:14:36;;;;;;;12.60;11.30;;;2.80;1.00;;;;;;5119573;28;20205;-38
2023/01/23 00:17:01;;;;;;;12.63;10.90;;;2.90;1.00;;;;;;5120631;28;20175;-38
2023/01/23 00:19:27;;;;;;;12.30;11.00;;;2.80;1.00;;;;;;5119406;28;20183;-37
2023/01/23 00:21:52;;;;;;;11.47;10.37;;;2.90;1.00;;;;;;5119084;28;20612;-37
2023/01/23 00:24:18;;;;;;;10.83;9.73;;;2.90;1.00;;;;;;5120047;28;20180;-37
2023/01/23 00:26:44;;;;;;;13.13;11.83;;;2.90;1.00;;;;;;5120237;28;20266;-37
2023/01/23 00:29:09;;;;;;;13.37;11.97;;;2.80;1.00;;;;;;5119624;28;20490;-38
2023/01/23 00:31:37;;;;;;;12.47;11.00;;;2.90;1.00;;;;;;5119748;28;20199;-37
2023/01/23 00:34:05;;;;;;;12.30;11.03;;;2.90;1.00;;;;;;5119303;28;20191;-37
2023/01/23 00:36:36;;;;;;;12.57;10.70;;;2.80;1.00;;;;;;5120212;28;20426;-37
2023/01/23 00:39:05;;;;;;;11.37;10.03;;;2.80;1.00;;;;;;5120286;28;20534;-37
2023/01/23 00:41:31;;;;;;;13.17;11.77;;;2.80;1.00;;;;;;5120544;28;20429;-37
2023/01/23 00:43:57;;;;;;;13.30;11.97;;;2.80;1.00;;;;;;5121779;28;20737;-38
2023/01/23 00:46:22;;;;;;;12.93;11.63;;;2.80;1.00;;;;;;5123305;28;20420;-37
2023/01/23 00:48:48;;;;;;;13.30;11.27;;;2.80;1.00;;;;;;5122831;28;20218;-39
2023/01/23 00:51:14;;;;;;;12.80;11.50;;;2.70;1.00;;;;;;5123022;28;20198;-38
2023/01/23 00:53:40;;;;;;;12.40;10.63;;;2.70;1.00;;;;;;5122690;28;20453;-37
2023/01/23 00:56:06;;;;;;;11.57;10.37;;;2.70;1.00;;;;;;5123417;27;20410;-37
2023/01/23 00:58:32;;;;;;;11.17;9.97;;;2.70;1.00;;;;;;5121807;28;20505;-39
2023/01/23 01:00:57;;;;;;;11.63;10.23;;;2.70;99.90;;;;;;5119613;28;20741;-38
2023/01/23 01:03:24;;;;;;;12.47;11.07;;;2.70;1.00;;;;;;5119698;28;20251;-39
2023/01/23 01:05:50;;;;;;;12.40;11.20;;;2.60;1.00;;;;;;5120040;28;20473;-37
2023/01/23 01:08:16;;;;;;;12.43;11.13;;;2.60;1.00;;;;;;5118341;28;20568;-37
2023/01/23 01:10:41;;;;;;;11.00;9.90;;;2.60;1.00;;;;;;5117945;28;20578;-37
2023/01/23 01:13:08;;;;;;;13.20;11.20;;;2.60;1.00;;;;;;5118765;28;20167;-37
2023/01/23 01:15:34;;;;;;;12.00;10.80;;;2.60;1.00;;;;;;5118716;28;20172;-38
2023/01/23 01:17:59;;;;;;;10.93;9.80;;;2.60;1.00;;;;;;5117813;28;20690;-37
2023/01/23 01:20:26;;;;;;;11.93;10.73;;;2.60;1.00;;;;;;5118021;28;20180;-37
2023/01/23 01:22:53;;;;;;;12.60;11.30;;;2.60;1.00;;;;;;5118248;28;20259;-37
2023/01/23 01:25:19;;;;;;;12.37;11.07;;;2.60;1.00;;;;;;5118601;28;20414;-38
2023/01/23 01:27:45;;;;;;;11.03;9.87;;;2.60;1.00;;;;;;5119580;28;20883;-41
2023/01/23 01:30:11;;;;;;;13.07;11.70;;;2.60;1.00;;;;;;5119265;28;20415;-38
2023/01/23 01:32:38;;;;;;;11.07;9.97;;;2.60;1.00;;;;;;5119330;28;20644;-37
2023/01/23 01:35:05;;;;;;;10.97;9.87;;;2.60;1.00;;;;;;5118305;28;20417;-37
2023/01/23 01:37:36;;;;;;;11.37;10.20;;;2.60;1.00;;;;;;5118777;28;20413;-37
2023/01/23 01:40:03;;;;;;;12.93;11.03;;;2.60;1.00;;;;;;5119301;28;20458;-37
2023/01/23 01:42:29;;;;;;;11.10;9.67;;;2.60;1.00;;;;;;5118373;28;20430;-38
2023/01/23 01:44:57;;;;;;;11.33;10.20;;;2.60;1.00;;;;;;5118577;28;20427;-37
2023/01/23 01:47:23;;;;;;;12.33;10.40;;;2.60;1.00;;;;;;5118259;28;20278;-38
2023/01/23 01:49:51;;;;;;;11.70;10.47;;;2.60;1.00;;;;;;5118118;28;20838;-38
2023/01/23 01:52:18;;;;;;;11.67;10.43;;;2.60;1.00;;;;;;5118356;28;20413;-37
2023/01/23 01:54:51;;;;;;;12.07;10.77;;;2.60;1.00;;;;;;5119735;28;20638;-38
2023/01/23 01:57:23;;;;;;;12.70;10.63;;;2.60;1.00;;;;;;5119455;28;20414;-37
2023/01/23 01:59:53;;;;;;;12.60;10.87;;;2.60;1.00;;;;;;5117532;28;20488;-38
2023/01/23 02:02:23;;;;;;;12.80;10.90;;;2.60;1.00;;;;;;5117735;28;20424;-38
2023/01/23 02:04:51;;;;;;;11.80;10.57;;;2.60;1.00;;;;;;5116182;28;20413;-37
2023/01/23 02:07:43;;;;;;;12.03;10.83;;;2.60;1.00;;;;;;5116619;28;20428;-37
2023/01/23 02:10:09;;;;;;;12.10;10.80;;;2.60;1.00;;;;;;5116988;28;20744;-37
2023/01/23 02:12:37;;;;;;;11.47;9.97;;;2.70;1.00;;;;;;5117315;28;20418;-37
2023/01/23 02:15:04;;;;;;;10.30;9.03;;;2.60;1.00;;;;;;5117973;28;20417;-37
2023/01/23 02:17:30;;;;;;;12.07;10.23;;;2.70;1.00;;;;;;5117631;28;20440;-36
2023/01/23 02:20:10;;;;;;;11.20;9.97;;;2.70;1.00;;;;;;5116567;28;20661;-37
2023/01/23 02:22:49;;;;;;;12.40;10.90;;;2.60;1.00;;;;;;5112746;28;20723;-38
2023/01/23 02:25:27;;;;;;;12.50;11.03;;;2.60;1.00;;;;;;5118053;28;20708;-39
2023/01/23 02:27:52;;;;;;;12.53;11.23;;;2.60;1.00;;;;;;5116374;28;20435;-37
2023/01/23 02:30:19;;;;;;;13.53;11.73;;;2.60;1.00;;;;;;5117537;28;20418;-38
2023/01/23 02:32:45;;;;;;;12.83;11.50;;;2.60;1.00;;;;;;5117032;28;20262;-37
2023/01/23 02:35:27;;;;;;;12.43;10.37;;;2.60;1.00;;;;;;5117721;28;20799;-37
2023/01/23 02:37:56;;;;;;;11.33;10.13;;;2.70;1.00;;;;;;5116399;28;20667;-38
2023/01/23 02:40:35;;;;;;;13.47;11.23;;;2.60;1.00;;;;;;5098876;28;20413;-37
2023/01/23 02:43:02;;;;;;;14.87;11.97;;;2.70;1.00;;;;;;5097077;28;20417;-39
2023/01/23 02:45:28;;;;;;;13.63;11.77;;;2.60;1.00;;;;;;5097316;28;20426;-37
2023/01/23 02:47:54;;;;;;;13.43;11.43;;;2.60;1.00;;;;;;5097198;28;20417;-38
2023/01/23 02:50:19;;;;;;;12.70;11.20;;;2.60;1.00;;;;;;5096440;28;20523;-37
2023/01/23 02:52:46;;;;;;;15.90;13.20;;;2.60;1.00;;;;;;5097549;28;20229;-37
2023/01/23 02:55:11;;;;;;;14.50;12.37;;;2.60;1.00;;;;;;5096889;28;20184;-38
2023/01/23 02:57:44;;;;;;;13.23;11.03;;;2.70;1.00;;;;;;5097250;28;20438;-37
2023/01/23 03:00:18;;;;;;;15.00;12.30;;;2.70;1.00;;;;;;5097108;28;20285;-36
2023/01/23 03:02:47;;;;;;;12.87;11.50;;;2.60;1.00;;;;;;5101677;28;20418;-37
2023/01/23 03:05:12;;;;;;;13.50;12.00;;;2.70;1.00;;;;;;5101156;28;20438;-37
2023/01/23 03:07:38;;;;;;;14.13;11.97;;;2.70;1.00;;;;;;5101354;28;20429;-37
2023/01/23 03:10:04;;;;;;;14.80;12.07;;;2.70;1.00;;;;;;5082554;28;20399;-36
2023/01/23 03:12:30;;;;;;;15.13;12.50;;;2.60;1.00;;;;;;5101131;28;20164;-37
2023/01/23 03:14:57;;;;;;;14.07;12.57;;;2.70;1.00;;;;;;5100712;28;20426;-38
2023/01/23 03:17:23;;;;;;;12.90;11.53;;;2.70;1.00;;;;;;5100619;28;20176;-38
2023/01/23 03:19:49;;;;;;;14.67;13.00;;;2.70;1.00;;;;;;5100349;28;20433;-37
2023/01/23 03:22:15;;;;;;;13.10;11.00;;;2.70;1.00;;;;;;5102123;28;20470;-37
2023/01/23 03:24:40;;;;;;;13.87;11.20;;;2.70;1.00;;;;;;5120710;28;20433;-39
2023/01/23 03:27:06;;;;;;;15.30;13.30;;;2.70;1.00;;;;;;5120208;28;20252;-37
2023/01/23 03:32:16;;;;;;;16.27;12.87;;;2.70;1.00;;;;;;5120671;28;20189;-37
2023/01/23 03:34:42;;;;;;;15.70;13.03;;;2.70;1.00;;;;;;5120966;28;20445;-37
2023/01/23 03:37:09;;;;;;;15.07;13.40;;;2.70;99.90;;;;;;5121227;27;20274;-37
2023/01/23 03:42:19;;;;;;;15.00;12.77;;;2.70;99.90;;;;;;5121078;28;20490;-37
2023/01/23 03:44:45;;;;;;;14.83;12.53;;;2.60;1.00;;;;;;5120174;28;20421;-39
2023/01/23 03:47:11;;;;;;;15.07;12.97;;;2.60;1.00;;;;;;5120980;28;20414;-37
2023/01/23 03:49:37;;;;;;;14.83;12.40;;;2.60;1.00;;;;;;5120814;28;20276;-37
2023/01/23 03:52:03;;;;;;;13.30;11.43;;;2.60;1.00;;;;;;5120606;28;20549;-37
2023/01/23 03:54:28;;;;;;;17.63;14.00;;;2.60;1.00;;;;;;5120337;27;20275;-36
2023/01/23 03:56:54;;;;;;;15.27;13.40;;;2.60;1.00;;;;;;5120105;27;20869;-38
2023/01/23 03:59:20;;;;;;;14.83;13.20;;;2.60;1.00;;;;;;5120358;27;20180;-39
2023/01/23 04:01:46;;;;;;;14.87;12.37;;;2.60;1.00;;;;;;5118466;28;20552;-38
2023/01/23 04:04:12;;;;;;;15.23;13.47;;;2.60;1.00;;;;;;5118814;28;20183;-37
2023/01/23 04:06:38;;;;;;;15.83;13.50;;;2.60;1.00;;;;;;5119025;28;20436;-38
2023/01/23 04:09:04;;;;;;;16.43;12.43;;;2.60;1.00;;;;;;5118476;28;20461;-37
2023/01/23 04:11:30;;;;;;;15.23;12.90;;;2.60;1.00;;;;;;5119084;28;20190;-37
2023/01/23 04:13:55;;;;;;;14.43;12.60;;;2.60;1.00;;;;;;5116988;28;20418;-36
2023/01/23 04:16:21;;;;;;;16.73;13.20;;;2.60;1.00;;;;;;5105838;28;20191;-40
2023/01/23 04:18:50;;;;;;;15.13;13.20;;;2.60;1.00;;;;;;5097846;28;20184;-37
2023/01/23 04:21:16;;;;;;;17.10;14.10;;;2.60;1.00;;;;;;5098116;28;20188;-37
2023/01/23 04:23:42;;;;;;;16.80;13.93;;;2.60;1.00;;;;;;5098852;28;20470;-37
2023/01/23 04:26:07;;;;;;;16.10;13.60;;;2.60;1.00;;;;;;5098981;28;20510;-37
2023/01/23 04:28:33;;;;;;;15.73;13.20;;;2.60;1.00;;;;;;5098441;28;20212;-37
2023/01/23 04:30:59;;;;;;;14.67;13.10;;;2.60;1.00;;;;;;5097391;28;20184;-37
2023/01/23 04:33:24;;;;;;;15.33;12.93;;;2.60;1.00;;;;;;5096620;28;20172;-38
2023/01/23 04:35:53;;;;;;;16.40;14.10;;;2.60;1.00;;;;;;5096984;28;20250;-37
2023/01/23 04:38:19;;;;;;;15.83;13.33;;;2.60;1.00;;;;;;5097015;28;20184;-37
2023/01/23 04:40:46;;;;;;;15.60;12.97;;;2.60;1.00;;;;;;5098472;28;20666;-37
2023/01/23 04:43:12;;;;;;;15.77;13.37;;;2.60;1.00;;;;;;5095600;28;20188;-38
2023/01/23 04:45:37;;;;;;;15.53;13.83;;;2.60;1.00;;;;;;5097545;28;20848;-37
2023/01/23 04:48:03;;;;;;;14.93;12.53;;;2.60;1.00;;;;;;5097882;28;20255;-38
2023/01/23 04:50:29;;;;;;;16.23;13.10;;;2.60;1.00;;;;;;5097745;28;20177;-37
2023/01/23 04:52:57;;;;;;;15.60;13.07;;;2.60;1.00;;;;;;5095833;28;20425;-37
2023/01/23 04:55:23;;;;;;;16.13;13.70;;;2.60;1.00;;;;;;5096481;28;20184;-37
2023/01/23 04:57:49;;;;;;;17.00;14.30;;;2.60;1.00;;;;;;5095103;28;20422;-37
2023/01/23 05:00:15;;;;;;;18.23;14.70;;;2.60;1.00;;;;;;5093521;28;20756;-37
2023/01/23 05:02:41;;;;;;;16.40;12.80;;;2.60;1.00;;;;;;5095711;28;20637;-37
2023/01/23 05:05:07;;;;;;;16.93;14.60;;;2.60;1.00;;;;;;5097908;28;20617;-37
2023/01/23 05:07:32;;;;;;;19.00;14.13;;;2.60;1.00;;;;;;5097096;28;20249;-37
2023/01/23 05:10:44;;;;;;;18.33;15.13;;;2.60;1.00;;;;;;5097888;28;20473;-39
2023/01/23 05:13:10;;;;;;;15.53;13.20;;;2.60;1.00;;;;;;5094848;28;20176;-37
2023/01/23 05:15:36;;;;;;;17.53;13.80;;;2.60;1.00;;;;;;5097432;28;20658;-37
2023/01/23 05:18:01;;;;;;;14.90;12.97;;;2.60;1.00;;;;;;5096527;28;20172;-38
2023/01/23 05:20:27;;;;;;;15.90;12.70;;;2.60;1.00;;;;;;5097262;28;20184;-37
2023/01/23 05:22:53;;;;;;;15.40;13.57;;;2.60;1.00;;;;;;5097436;28;20497;-36
2023/01/23 05:25:20;;;;;;;16.50;13.30;;;2.60;1.00;;;;;;5096738;28;20585;-37
2023/01/23 05:27:46;;;;;;;17.57;14.53;;;2.60;1.00;;;;;;5096960;28;20183;-37
2023/01/23 05:30:12;;;;;;;16.03;13.03;;;2.60;1.00;;;;;;5095088;28;20557;-37
2023/01/23 05:32:37;;;;;;;15.80;13.53;;;2.60;1.00;;;;;;5095512;28;20180;-37
2023/01/23 05:35:03;;;;;;;17.13;14.03;;;2.60;1.00;;;;;;5094748;28;20183;-37
2023/01/23 05:37:29;;;;;;;16.63;13.00;;;2.60;1.00;;;;;;5092833;28;20570;-37
2023/01/23 05:39:54;;;;;;;16.07;13.37;;;2.60;1.00;;;;;;5092370;28;20573;-36
2023/01/23 05:42:20;;;;;;;17.80;13.93;;;2.60;1.00;;;;;;5092602;28;20563;-37
2023/01/23 05:44:46;;;;;;;18.97;13.60;;;2.60;1.00;;;;;;5094598;28;20179;-38
2023/01/23 05:47:11;;;;;;;18.03;14.10;;;2.60;1.00;;;;;;5095221;28;20202;-38
2023/01/23 05:49:37;;;;;;;15.00;13.17;;;2.60;1.00;;;;;;5095304;28;20536;-37
2023/01/23 05:52:03;;;;;;;16.53;13.93;;;2.60;1.00;;;;;;5095712;28;20173;-37
2023/01/23 05:54:28;;;;;;;17.57;13.43;;;2.60;1.00;;;;;;5095785;28;20205;-38
2023/01/23 05:56:54;;;;;;;20.47;15.53;;;2.60;1.00;;;;;;5093691;28;20176;-37
2023/01/23 05:59:20;;;;;;;18.67;15.17;;;2.60;1.00;;;;;;5096200;28;20679;-37
2023/01/23 06:01:45;;;;;;;18.23;13.83;;;2.60;1.00;;;;;;5093487;28;20241;-36
2023/01/23 06:04:14;;;;;;;19.13;15.00;;;2.60;1.00;;;;;;5093416;28;20160;-37
2023/01/23 06:06:45;;;;;;;17.10;14.77;;;2.60;1.00;;;;;;5091339;28;20308;-36
2023/01/23 06:09:11;;;;;;;17.67;14.20;;;2.60;1.00;;;;;;5092678;28;20492;-37
2023/01/23 06:11:37;;;;;;;16.93;13.50;;;2.60;1.00;;;;;;5090171;28;20415;-37
2023/01/23 06:14:03;;;;;;;18.37;14.33;;;2.60;1.00;;;;;;5091892;28;20188;-37
2023/01/23 06:16:28;;;;;;;18.70;15.13;;;2.60;1.00;;;;;;5090032;28;20411;-36
2023/01/23 06:18:54;;;;;;;15.90;12.50;;;2.60;1.00;;;;;;5089033;28;20229;-37
2023/01/23 06:21:19;;;;;;;18.10;14.73;;;2.60;1.00;;;;;;5088758;28;20176;-37
2023/01/23 06:23:45;;;;;;;18.80;14.70;;;2.60;1.00;;;;;;5084478;28;20232;-37
2023/01/23 06:26:12;;;;;;;17.50;13.80;;;2.60;1.00;;;;;;5097681;28;20585;-39
2023/01/23 06:28:37;;;;;;;17.40;13.77;;;2.60;1.00;;;;;;5109556;28;20208;-36
2023/01/23 06:31:05;;;;;;;19.47;14.40;;;2.60;1.00;;;;;;5091742;28;20437;-37
2023/01/23 06:33:31;;;;;;;17.50;13.60;;;2.60;1.00;;;;;;5100133;28;20172;-37
2023/01/23 06:36:02;;;;;;;18.50;14.73;;;2.60;1.00;;;;;;5096835;28;20852;-37
2023/01/23 06:38:29;;;;;;;17.83;14.33;;;2.60;1.00;;;;;;5091102;28;20465;-37
2023/01/23 06:40:55;;;;;;;16.77;13.87;;;2.60;1.00;;;;;;5092334;28;20406;-36
2023/01/23 06:43:22;;;;;;;18.00;13.90;;;2.60;1.00;;;;;;5093255;28;21078;-37
2023/01/23 06:45:49;;;;;;;18.03;13.70;;;2.60;1.00;;;;;;5092596;28;20963;-37
2023/01/23 06:48:15;;;;;;;17.23;13.70;;;2.60;1.00;;;;;;5093858;28;20523;-42
2023/01/23 06:50:41;;;;;;;16.13;12.77;;;2.60;1.00;;;;;;5093136;28;20708;-37
2023/01/23 06:53:08;;;;;;;15.90;12.80;;;2.60;1.00;;;;;;5089440;28;20686;-37
2023/01/23 06:55:34;;;;;;;18.63;14.07;;;2.60;1.00;;;;;;5087329;28;20418;-36
2023/01/23 06:58:00;;;;;;;15.47;12.83;;;2.60;1.00;;;;;;5089884;28;20870;-37
2023/01/23 07:00:26;;;;;;;16.43;13.50;;;2.60;1.00;;;;;;5089632;28;20448;-37
2023/01/23 07:02:52;;;;;;;16.33;13.47;;;2.60;1.00;;;;;;5086307;28;20327;-37
2023/01/23 07:05:18;;;;;;;17.53;14.53;;;2.60;1.00;;;;;;5087821;28;20414;-37
2023/01/23 07:07:45;;;;;;;16.80;14.27;;;2.50;1.00;;;;;;5105534;28;20710;-36
2023/01/23 07:10:11;;;;;;;16.63;13.47;;;2.50;1.00;;;;;;5089494;28;20466;-36
2023/01/23 07:12:36;;;;;;;18.90;13.93;;;2.50;1.00;;;;;;5091628;28;20744;-37
2023/01/23 07:15:02;;;;;;;17.83;13.23;;;2.50;1.00;;;;;;5090094;28;20449;-37
2023/01/23 07:17:29;;;;;;;16.37;12.07;;;2.50;1.00;;;;;;5091271;28;20176;-37
2023/01/23 07:19:56;;;;;;;19.13;14.70;;;2.50;1.00;;;;;;5093612;28;21051;-39
2023/01/23 07:22:22;;;;;;;16.20;13.30;;;2.50;1.00;;;;;;5092274;28;20690;-37
2023/01/23 07:24:47;;;;;;;20.17;14.47;;;2.50;1.00;;;;;;5091014;28;20438;-37
2023/01/23 07:27:13;;;;;;;16.63;13.03;;;2.50;1.00;;;;;;5091824;28;20628;-37
2023/01/23 07:29:40;;;;;;;16.70;13.97;;;2.50;1.00;;;;;;5092192;28;20192;-37
2023/01/23 07:32:06;;;;;;;18.50;14.23;;;2.60;1.00;;;;;;5093172;28;20411;-37
2023/01/23 07:34:32;;;;;;;16.47;13.07;;;2.60;1.00;;;;;;5098536;28;20521;-37
2023/01/23 07:37:00;;;;;;;15.90;13.10;;;2.60;1.00;;;;;;5114046;28;20168;-37
2023/01/23 07:39:25;;;;;;;17.03;12.60;;;2.60;1.00;;;;;;5112010;28;20168;-38
2023/01/23 07:41:51;;;;;;;14.40;11.80;;;2.60;1.00;;;;;;5112055;28;20405;-37
2023/01/23 07:44:19;;;;;;;16.50;12.93;;;2.70;1.00;;;;;;5112082;28;20175;-37
2023/01/23 07:46:45;;;;;;;18.13;13.37;;;2.70;1.00;;;;;;5111483;28;20172;-37
2023/01/23 07:49:12;;;;;;;17.20;13.73;;;2.70;1.00;;;;;;5117582;28;20469;-37
2023/01/23 07:51:37;;;;;;;15.83;12.63;;;2.70;1.00;;;;;;5119306;28;20414;-37
2023/01/23 07:54:03;;;;;;;19.33;14.67;;;2.80;1.00;;;;;;5118020;28;20420;-38
2023/01/23 07:56:30;;;;;;;17.27;13.87;;;2.80;99.90;;;;;;5116517;28;20707;-37
2023/01/23 07:58:55;;;;;;;18.53;13.97;;;2.80;99.90;;;;;;5116467;28;20429;-38
2023/01/23 08:01:21;;;;;;;19.33;15.40;;;2.80;99.90;;;;;;5117631;28;20428;-36
2023/01/23 08:03:46;;;;;;;16.17;13.20;;;2.90;99.90;;;;;;5118059;28;20183;-36
2023/01/23 08:06:12;;;;;;;18.83;13.70;;;2.90;99.90;;;;;;5117661;28;20187;-37
2023/01/23 08:08:38;;;;;;;18.77;14.07;;;2.90;99.90;;;;;;5115219;28;20268;-37
2023/01/23 08:11:05;;;;;;;16.77;13.20;;;2.90;99.90;;;;;;5114847;28;20676;-37
2023/01/23 08:13:31;;;;;;;16.33;13.57;;;3.00;99.90;;;;;;5115707;28;20319;-37
2023/01/23 08:15:58;;;;;;;18.90;13.50;;;3.00;99.90;;;;;;5115958;28;20839;-37
2023/01/23 08:18:24;;;;;;;16.83;12.80;;;3.10;98.10;;;;;;5117468;28;20172;-36
2023/01/23 08:21:02;;;;;;;4.63;3.10;;;3.10;17.50;;;;;;5117443;28;20405;-37
2023/01/23 08:23:30;;;;;;;12.63;7.90;;;4.40;1.00;;;;;;5116393;28;20476;-38
2023/01/23 08:25:58;;;;;;;12.43;8.93;;;6.20;1.00;;;;;;5117925;28;20425;-38
2023/01/23 08:28:24;;;;;;;18.20;7.93;;;7.80;1.00;;;;;;5116051;28;20492;-39
2023/01/23 08:30:50;;;;;;;12.03;8.33;;;9.10;1.00;;;;;;5117580;28;20417;-44
2023/01/23 08:33:17;;;;;;;10.43;9.20;;;9.80;1.00;;;;;;5119052;28;20496;-38
2023/01/23 08:35:55;;;;;;;17.60;14.33;;;9.80;1.00;;;;;;5118947;28;20405;-38
2023/01/23 08:38:21;;;;;;;16.10;13.23;;;9.30;99.90;;;;;;5119080;28;20409;-38
2023/01/23 08:40:48;;;;;;;14.97;13.00;;;8.80;1.00;;;;;;5117335;28;20673;-37
2023/01/23 08:43:14;;;;;;;16.90;13.47;;;8.20;1.00;;;;;;5116535;28;20506;-38
2023/01/23 08:45:40;;;;;;;16.37;13.53;;;7.70;13.60;;;;;;5116234;28;20452;-38
2023/01/23 08:48:07;;;;;;;16.40;14.43;;;7.30;99.90;;;;;;5114286;27;20829;-38
2023/01/23 08:50:33;;;;;;;16.30;13.40;;;6.90;1.00;;;;;;5116544;28;20504;-38
2023/01/23 08:52:59;;;;;;;15.47;13.80;;;6.60;36.00;;;;;;5114423;28;20429;-38
2023/01/23 08:55:27;;;;;;;16.87;13.57;;;6.30;1.00;;;;;;5097580;28;20437;-38
2023/01/23 08:57:52;;;;;;;19.20;14.07;;;6.10;99.90;;;;;;5118676;28;20360;-40
2023/01/23 09:00:19;;;;;;;17.57;14.13;;;6.00;99.90;;;;;;5121376;28;20459;-37
2023/01/23 09:02:44;;;;;;;17.40;13.23;;;5.80;99.90;;;;;;5123519;28;20187;-38
2023/01/23 09:05:10;;;;;;;17.20;13.20;;;5.70;99.90;;;;;;5123457;28;20417;-38
2023/01/23 09:07:36;;;;;;;15.93;13.37;;;5.60;99.90;;;;;;5122930;28;20183;-37
2023/01/23 09:10:03;;;;;;;16.20;13.60;;;5.60;99.90;;;;;;5124462;28;20203;-37
2023/01/23 09:12:29;;;;;;;16.90;14.30;;;5.50;1.00;;;;;;5125947;28;20424;-37
2023/01/23 09:14:54;;;;;;;16.90;13.00;;;5.50;1.00;;;;;;5124003;28;20450;-38
2023/01/23 09:17:20;;;;;;;15.40;13.33;;;5.50;1.00;;;;;;5121290;28;20168;-38
2023/01/23 09:19:45;;;;;;;19.43;15.13;;;5.50;1.00;;;;;;5117362;28;20172;-38
2023/01/23 09:22:11;;;;;;;20.00;15.47;;;5.40;1.00;;;;;;5114093;28;20371;-38
2023/01/23 09:24:37;;;;;;;20.80;14.80;;;5.40;1.00;;;;;;5114078;28;20616;-38
2023/01/23 09:27:02;;;;;;;15.67;13.03;;;5.40;1.00;;;;;;5113352;28;20310;-37
2023/01/23 09:29:28;;;;;;;17.77;13.57;;;5.40;99.90;;;;;;5114114;28;20199;-37
2023/01/23 09:31:54;;;;;;;19.10;13.90;;;5.50;99.90;;;;;;5114980;28;20179;-38
2023/01/23 09:34:19;;;;;;;20.27;13.60;;;5.60;99.90;;;;;;5116101;28;20183;-38
2023/01/23 09:36:45;;;;;;;18.30;12.70;;;5.80;35.70;;;;;;5114405;28;20164;-37
2023/01/23 09:39:11;;;;;;;15.00;11.50;;;6.10;1.00;;;;;;5112699;28;20176;-37
2023/01/23 09:41:38;;;;;;;16.80;12.67;;;6.30;1.00;;;;;;5113747;28;20342;-37
2023/01/23 09:44:06;;;;;;;15.10;11.93;;;6.40;99.90;;;;;;5114058;28;20449;-37
2023/01/23 09:46:49;;;;;;;15.80;12.10;;;6.30;99.90;;;;;;5113213;28;20525;-37
2023/01/23 09:49:26;;;;;;;13.87;11.47;;;6.10;99.90;;;;;;5112640;28;20716;-38
2023/01/23 09:52:08;;;;;;;15.53;11.97;;;6.00;99.90;;;;;;5116803;28;20420;-38
2023/01/23 09:54:42;;;;;;;14.87;12.40;;;5.80;99.90;;;;;;5113997;28;20444;-37
2023/01/23 09:57:33;;;;;;;17.40;13.37;;;5.70;99.90;;;;;;5114910;28;20424;-37
2023/01/23 10:00:13;;;;;;;15.63;12.50;;;5.50;99.90;;;;;;5114657;28;20719;-37
2023/01/23 10:02:42;;;;;;;14.03;11.30;;;5.50;99.90;;;;;;5115328;28;20862;-37
2023/01/23 10:05:15;;;;;;;13.53;10.37;;;5.50;99.90;;;;;;5113255;28;20428;-37
2023/01/23 10:07:47;;;;;;;12.70;10.00;;;5.40;99.90;;;;;;5113448;28;20789;-37
2023/01/23 10:10:16;;;;;;;13.27;10.60;;;5.40;99.90;;;;;;5110405;28;20464;-37
2023/01/23 10:12:48;;;;;;;14.53;12.57;;;5.40;99.90;;;;;;5113317;28;20490;-36
2023/01/23 10:15:16;;;;;;;15.20;11.30;;;5.30;99.90;;;;;;5113146;28;20417;-37
2023/01/23 10:17:54;;;;;;;11.73;9.63;;;5.30;99.90;;;;;;5115060;28;20485;-38
2023/01/23 10:21:01;;;;;;;13.37;10.10;;;5.50;99.90;;;;;;5112462;28;20417;-37
2023/01/23 10:23:36;;;;;;;13.13;9.80;;;5.80;1.00;;;;;;5103291;28;20525;-38
2023/01/23 10:26:02;;;;;;;12.23;10.10;;;6.10;1.00;;;;;;5114357;28;20847;-38
2023/01/23 10:28:38;;;;;;;14.13;9.50;;;6.30;99.90;;;;;;5112859;28;20874;-37
2023/01/23 10:31:28;;;;;;;12.07;9.40;;;6.70;98.20;;;;;;5112722;28;20472;-37
2023/01/23 10:33:57;;;;;;;12.37;10.57;;;6.90;1.00;;;;;;5115662;28;20450;-37
2023/01/23 10:36:29;;;;;;;11.00;9.80;;;7.10;1.00;;;;;;5114466;28;20401;-37
2023/01/23 10:39:05;;;;;;;14.07;10.03;;;7.10;1.00;;;;;;5110525;28;20432;-38
2023/01/23 10:41:32;;;;;;;13.30;11.27;;;7.00;1.00;;;;;;5112727;28;20428;-38
2023/01/23 10:43:58;;;;;;;11.43;10.07;;;7.10;1.00;;;;;;5113101;28;20440;-39
2023/01/23 10:46:34;;;;;;;12.33;9.67;;;7.30;1.00;;;;;;5111741;28;20417;-37
2023/01/23 10:49:01;;;;;;;12.23;10.27;;;7.40;1.00;;;;;;5114478;28;20480;-37
2023/01/23 10:51:35;;;;;;;12.47;10.20;;;7.50;1.00;;;;;;5112589;28;20864;-37
2023/01/23 10:54:08;;;;;;;12.80;10.47;;;7.50;1.00;;;;;;5110862;28;20523;-37
2023/01/23 10:56:36;;;;;;;11.20;8.80;;;7.40;1.00;;;;;;5110947;28;20410;-37
2023/01/23 10:59:04;;;;;;;11.70;9.80;;;7.30;1.00;;;;;;5112197;28;20437;-37
2023/01/23 11:01:32;;;;;;;10.70;9.03;;;7.10;1.00;;;;;;5109643;28;20413;-38
2023/01/23 11:04:18;;;;;;;12.00;9.97;;;7.10;1.00;;;;;;5112178;28;20776;-39
2023/01/23 11:07:01;;;;;;;12.27;9.43;;;7.10;1.00;;;;;;5109775;28;20426;-38
2023/01/23 11:09:27;;;;;;;12.33;11.03;;;7.10;1.00;;;;;;5110589;28;20469;-37
2023/01/23 11:12:03;;;;;;;11.73;9.80;;;7.20;1.00;;;;;;5109535;28;20410;-38
2023/01/23 11:14:29;;;;;;;13.27;10.17;;;7.10;1.00;;;;;;5111736;28;20187;-37
2023/01/23 11:17:10;;;;;;;11.67;10.40;;;7.10;1.00;;;;;;5111149;28;20579;-38
2023/01/23 11:19:36;;;;;;;12.90;10.47;;;7.10;1.00;;;;;;5110310;28;20433;-38
2023/01/23 11:22:03;;;;;;;11.80;10.20;;;7.10;1.00;;;;;;5114339;27;21593;-38
2023/01/23 11:24:32;;;;;;;14.00;11.10;;;7.10;1.00;;;;;;5114462;28;20228;-39
2023/01/23 11:27:08;;;;;;;11.83;9.97;;;7.20;1.00;;;;;;5098257;28;20515;-39
2023/01/23 11:29:54;;;;;;;12.50;10.20;;;7.30;1.00;;;;;;5095877;28;20480;-38
2023/01/23 11:32:21;;;;;;;13.27;10.90;;;7.40;1.00;;;;;;5096101;28;20783;-38
2023/01/23 11:34:53;;;;;;;13.47;10.60;;;7.50;1.00;;;;;;5097068;28;20430;-37
2023/01/23 11:37:29;;;;;;;12.60;10.73;;;7.60;1.00;;;;;;5095172;28;20399;-38
2023/01/23 11:40:10;;;;;;;11.73;10.17;;;7.60;1.00;;;;;;5094890;28;20437;-38
2023/01/23 11:42:39;;;;;;;15.17;11.70;;;7.50;1.00;;;;;;5094164;28;20410;-37
2023/01/23 11:45:13;;;;;;;13.93;10.80;;;7.50;1.00;;;;;;5091654;28;20676;-38
2023/01/23 11:47:47;;;;;;;14.47;11.33;;;7.50;1.00;;;;;;5091435;28;20407;-38
2023/01/23 11:50:30;;;;;;;13.80;11.10;;;7.40;1.00;;;;;;5092418;28;20803;-38
2023/01/23 11:53:18;;;;;;;13.90;11.20;;;7.40;1.00;;;;;;5093600;28;20406;-38
2023/01/23 11:56:07;;;;;;;16.43;10.70;;;7.30;1.00;;;;;;5116749;28;20413;-38
2023/01/23 11:58:33;;;;;;;12.80;10.50;;;7.30;1.00;;;;;;5083891;27;20433;-38
2023/01/23 12:01:26;;;;;;;13.20;10.40;;;7.30;1.00;;;;;;5116181;28;20424;-38
2023/01/23 12:04:00;;;;;;;14.53;11.53;;;7.20;1.00;;;;;;5112948;28;20180;-38
2023/01/23 12:06:44;;;;;;;6.47;5.43;;;7.00;1.00;;;;;;5113180;28;20405;-39
2023/01/23 12:09:19;;;;;;;14.00;7.77;;;8.00;99.90;;;;;;5113611;28;20617;-49
2023/01/23 12:11:58;;;;;;;8.93;7.57;;;9.20;1.00;;;;;;5096639;28;20679;-39
2023/01/23 12:14:29;;;;;;;13.93;10.50;;;10.00;1.00;;;;;;5116249;28;20456;-41
2023/01/23 12:17:11;;;;;;;13.90;11.33;;;10.20;1.00;;;;;;5117723;28;20794;-39
2023/01/23 12:19:47;;;;;;;14.07;11.77;;;10.00;1.00;;;;;;5114644;28;20417;-37
2023/01/23 12:22:22;;;;;;;14.87;11.97;;;9.70;1.00;;;;;;5087741;28;20437;-38
2023/01/23 12:25:10;;;;;;;16.57;12.57;;;9.30;1.00;;;;;;5095466;28;20425;-37
2023/01/23 12:27:47;;;;;;;15.67;13.20;;;8.90;99.90;;;;;;5077629;28;20415;-37
2023/01/23 12:30:37;;;;;;;15.80;13.30;;;8.60;99.90;;;;;;5092317;28;20481;-37
2023/01/23 12:33:25;;;;;;;15.70;13.17;;;8.50;61.80;;;;;;5091059;28;20712;-37
2023/01/23 12:36:15;;;;;;;16.80;12.10;;;8.50;1.00;;;;;;5094507;28;20422;-37
2023/01/23 12:38:44;;;;;;;14.83;12.73;;;8.60;1.00;;;;;;5095647;28;20426;-37
2023/01/23 12:41:41;;;;;;;14.50;12.47;;;8.80;1.00;;;;;;5095981;28;20402;-37
2023/01/23 12:44:20;;;;;;;14.67;12.03;;;9.00;1.00;;;;;;5097358;28;20490;-37
2023/01/23 12:46:53;;;;;;;14.67;12.27;;;9.20;1.00;;;;;;5099004;28;20417;-37
2023/01/23 12:49:18;;;;;;;14.90;11.83;;;9.40;1.00;;;;;;5096454;28;20487;-37
2023/01/23 12:51:48;;;;;;;13.87;12.27;;;9.50;1.00;;;;;;5116536;28;20421;-37
2023/01/23 12:54:19;;;;;;;16.00;12.50;;;9.70;1.00;;;;;;5118478;28;20172;-37
2023/01/23 12:56:45;;;;;;;14.10;12.13;;;9.80;1.00;;;;;;5118890;28;20409;-37
2023/01/23 12:59:13;;;;;;;15.23;13.20;;;10.10;1.00;;;;;;5106541;28;20838;-37